Terminal Aerodrome Forecast
Issued by NWS Nashville, TN

Home | Current Version | Previous Version | Text Only | Print | Product List | Glossary On
Versions: 1 2 3 4 5 6 7 8 9 10 11 12 13 14 15 16 17 18 19 20 21 22
112
FTUS44 KOHX 301001 AAC
TAFCSV
TAF AMD
KCSV 301001Z 3010/3106 00000KT 6SM BR SCT120
     FM301400 01007KT P6SM SCT250=

USA.gov is the U.S. government's official web portal to all federal, state and local government web resources and services.